sensor_id;sensor_type;location;lat;lon;timestamp;P1;durP1;ratioP1;P2;durP2;ratioP2
78542;SDS011;67836;52.430;14.446;2023-09-07T00:00:07;10.38;;;6.40;;
78542;SDS011;67836;52.430;14.446;2023-09-07T00:02:54;11.15;;;6.57;;
78542;SDS011;67836;52.430;14.446;2023-09-07T00:05:38;9.98;;;6.00;;
78542;SDS011;67836;52.430;14.446;2023-09-07T00:11:11;12.13;;;6.35;;
78542;SDS011;67836;52.430;14.446;2023-09-07T00:13:55;11.38;;;6.32;;
78542;SDS011;67836;52.430;14.446;2023-09-07T00:16:41;12.18;;;6.32;;
78542;SDS011;67836;52.430;14.446;2023-09-07T00:19:25;11.00;;;7.05;;
78542;SDS011;67836;52.430;14.446;2023-09-07T00:22:09;10.98;;;6.63;;
78542;SDS011;67836;52.430;14.446;2023-09-07T00:24:53;11.60;;;6.82;;
78542;SDS011;67836;52.430;14.446;2023-09-07T00:27:38;11.80;;;6.88;;
78542;SDS011;67836;52.430;14.446;2023-09-07T00:30:22;14.20;;;8.25;;
78542;SDS011;67836;52.430;14.446;2023-09-07T00:33:05;12.30;;;7.13;;
78542;SDS011;67836;52.430;14.446;2023-09-07T00:38:33;13.18;;;6.13;;
78542;SDS011;67836;52.430;14.446;2023-09-07T00:44:00;11.65;;;6.45;;
78542;SDS011;67836;52.430;14.446;2023-09-07T00:49:31;11.38;;;6.82;;
78542;SDS011;67836;52.430;14.446;2023-09-07T00:52:15;10.60;;;6.90;;
78542;SDS011;67836;52.430;14.446;2023-09-07T00:55:00;13.50;;;7.65;;
78542;SDS011;67836;52.430;14.446;2023-09-07T00:57:44;11.68;;;6.72;;
78542;SDS011;67836;52.430;14.446;2023-09-07T01:00:28;11.80;;;6.20;;
78542;SDS011;67836;52.430;14.446;2023-09-07T01:03:12;12.02;;;7.22;;
78542;SDS011;67836;52.430;14.446;2023-09-07T01:08:46;11.10;;;6.55;;
78542;SDS011;67836;52.430;14.446;2023-09-07T01:11:35;12.73;;;7.55;;
78542;SDS011;67836;52.430;14.446;2023-09-07T01:14:19;10.25;;;6.68;;
78542;SDS011;67836;52.430;14.446;2023-09-07T01:19:48;12.20;;;7.40;;
78542;SDS011;67836;52.430;14.446;2023-09-07T01:22:33;12.73;;;7.40;;
78542;SDS011;67836;52.430;14.446;2023-09-07T01:25:17;10.43;;;6.53;;
78542;SDS011;67836;52.430;14.446;2023-09-07T01:28:02;10.95;;;6.38;;
78542;SDS011;67836;52.430;14.446;2023-09-07T01:30:46;11.18;;;6.18;;
78542;SDS011;67836;52.430;14.446;2023-09-07T01:33:30;10.73;;;6.55;;
78542;SDS011;67836;52.430;14.446;2023-09-07T01:36:14;10.32;;;6.30;;
78542;SDS011;67836;52.430;14.446;2023-09-07T01:38:57;11.32;;;6.32;;
78542;SDS011;67836;52.430;14.446;2023-09-07T01:41:42;10.68;;;6.85;;
78542;SDS011;67836;52.430;14.446;2023-09-07T01:44:26;12.10;;;7.55;;
78542;SDS011;67836;52.430;14.446;2023-09-07T01:47:10;9.98;;;6.50;;
78542;SDS011;67836;52.430;14.446;2023-09-07T01:49:54;12.32;;;6.75;;
78542;SDS011;67836;52.430;14.446;2023-09-07T01:52:38;10.55;;;6.30;;
78542;SDS011;67836;52.430;14.446;2023-09-07T01:55:22;12.25;;;6.47;;
78542;SDS011;67836;52.430;14.446;2023-09-07T02:00:49;10.90;;;6.82;;
78542;SDS011;67836;52.430;14.446;2023-09-07T02:03:33;13.85;;;7.55;;
78542;SDS011;67836;52.430;14.446;2023-09-07T02:06:17;13.55;;;7.38;;
78542;SDS011;67836;52.430;14.446;2023-09-07T02:09:02;11.88;;;7.20;;
78542;SDS011;67836;52.430;14.446;2023-09-07T02:11:47;10.73;;;6.93;;
78542;SDS011;67836;52.430;14.446;2023-09-07T02:14:31;12.50;;;7.25;;
78542;SDS011;67836;52.430;14.446;2023-09-07T02:17:15;13.10;;;7.97;;
78542;SDS011;67836;52.430;14.446;2023-09-07T02:20:01;12.32;;;7.45;;
78542;SDS011;67836;52.430;14.446;2023-09-07T02:22:51;13.48;;;7.97;;
78542;SDS011;67836;52.430;14.446;2023-09-07T02:25:35;13.68;;;8.13;;
78542;SDS011;67836;52.430;14.446;2023-09-07T02:31:05;12.95;;;8.10;;
78542;SDS011;67836;52.430;14.446;2023-09-07T02:33:49;12.88;;;8.38;;
78542;SDS011;67836;52.430;14.446;2023-09-07T02:36:33;15.50;;;9.23;;
78542;SDS011;67836;52.430;14.446;2023-09-07T02:39:18;14.35;;;8.43;;
78542;SDS011;67836;52.430;14.446;2023-09-07T02:42:02;12.52;;;7.47;;
78542;SDS011;67836;52.430;14.446;2023-09-07T02:47:30;15.30;;;9.45;;
78542;SDS011;67836;52.430;14.446;2023-09-07T02:53:00;11.77;;;7.50;;
78542;SDS011;67836;52.430;14.446;2023-09-07T02:55:44;13.55;;;7.38;;
78542;SDS011;67836;52.430;14.446;2023-09-07T02:58:27;14.80;;;8.07;;
78542;SDS011;67836;52.430;14.446;2023-09-07T03:01:12;13.18;;;8.68;;
78542;SDS011;67836;52.430;14.446;2023-09-07T03:03:56;17.45;;;10.35;;
78542;SDS011;67836;52.430;14.446;2023-09-07T03:06:40;14.20;;;8.48;;
78542;SDS011;67836;52.430;14.446;2023-09-07T03:09:24;14.90;;;9.43;;
78542;SDS011;67836;52.430;14.446;2023-09-07T03:12:08;14.98;;;9.75;;
78542;SDS011;67836;52.430;14.446;2023-09-07T03:17:36;16.92;;;8.80;;
78542;SDS011;67836;52.430;14.446;2023-09-07T03:20:20;14.55;;;9.10;;
78542;SDS011;67836;52.430;14.446;2023-09-07T03:25:47;17.52;;;9.10;;
78542;SDS011;67836;52.430;14.446;2023-09-07T03:28:31;14.82;;;8.80;;
78542;SDS011;67836;52.430;14.446;2023-09-07T03:31:15;16.10;;;9.73;;
78542;SDS011;67836;52.430;14.446;2023-09-07T03:33:59;15.95;;;9.45;;
78542;SDS011;67836;52.430;14.446;2023-09-07T03:36:43;16.27;;;9.75;;
78542;SDS011;67836;52.430;14.446;2023-09-07T03:39:26;14.38;;;8.00;;
78542;SDS011;67836;52.430;14.446;2023-09-07T03:42:10;15.90;;;8.55;;
78542;SDS011;67836;52.430;14.446;2023-09-07T03:47:38;13.68;;;8.57;;
78542;SDS011;67836;52.430;14.446;2023-09-07T03:50:22;29.38;;;8.55;;
78542;SDS011;67836;52.430;14.446;2023-09-07T03:53:06;15.02;;;8.20;;
78542;SDS011;67836;52.430;14.446;2023-09-07T03:55:50;13.57;;;8.40;;
78542;SDS011;67836;52.430;14.446;2023-09-07T03:58:34;12.80;;;8.20;;
78542;SDS011;67836;52.430;14.446;2023-09-07T04:01:17;14.98;;;8.52;;
78542;SDS011;67836;52.430;14.446;2023-09-07T04:06:46;17.27;;;8.68;;
78542;SDS011;67836;52.430;14.446;2023-09-07T04:09:30;13.05;;;8.10;;
78542;SDS011;67836;52.430;14.446;2023-09-07T04:12:15;14.95;;;8.13;;
78542;SDS011;67836;52.430;14.446;2023-09-07T04:17:42;13.75;;;7.93;;
78542;SDS011;67836;52.430;14.446;2023-09-07T04:20:26;56.50;;;8.38;;
78542;SDS011;67836;52.430;14.446;2023-09-07T04:23:17;91.00;;;9.95;;
78542;SDS011;67836;52.430;14.446;2023-09-07T04:26:08;37.17;;;9.68;;
78542;SDS011;67836;52.430;14.446;2023-09-07T04:28:52;16.90;;;8.00;;
78542;SDS011;67836;52.430;14.446;2023-09-07T04:31:36;11.73;;;7.13;;
78542;SDS011;67836;52.430;14.446;2023-09-07T04:34:23;11.60;;;7.00;;
78542;SDS011;67836;52.430;14.446;2023-09-07T04:37:07;11.52;;;7.07;;
78542;SDS011;67836;52.430;14.446;2023-09-07T04:39:51;14.90;;;5.47;;
78542;SDS011;67836;52.430;14.446;2023-09-07T04:42:36;12.18;;;7.10;;
78542;SDS011;67836;52.430;14.446;2023-09-07T04:45:22;12.10;;;7.07;;
78542;SDS011;67836;52.430;14.446;2023-09-07T04:48:06;11.73;;;6.70;;
78542;SDS011;67836;52.430;14.446;2023-09-07T04:50:57;11.82;;;6.75;;
78542;SDS011;67836;52.430;14.446;2023-09-07T04:53:41;12.30;;;6.68;;
78542;SDS011;67836;52.430;14.446;2023-09-07T04:56:24;12.15;;;7.38;;
78542;SDS011;67836;52.430;14.446;2023-09-07T04:59:09;14.80;;;8.25;;
78542;SDS011;67836;52.430;14.446;2023-09-07T05:01:54;14.30;;;8.15;;
78542;SDS011;67836;52.430;14.446;2023-09-07T05:04:38;80.57;;;9.68;;
78542;SDS011;67836;52.430;14.446;2023-09-07T05:07:22;24.35;;;9.20;;
78542;SDS011;67836;52.430;14.446;2023-09-07T05:12:52;18.92;;;8.80;;
78542;SDS011;67836;52.430;14.446;2023-09-07T05:15:36;18.77;;;7.80;;
78542;SDS011;67836;52.430;14.446;2023-09-07T05:21:15;21.25;;;6.70;;
78542;SDS011;67836;52.430;14.446;2023-09-07T05:23:59;10.65;;;6.68;;
78542;SDS011;67836;52.430;14.446;2023-09-07T05:26:43;12.93;;;8.07;;
78542;SDS011;67836;52.430;14.446;2023-09-07T05:29:27;16.67;;;7.53;;
78542;SDS011;67836;52.430;14.446;2023-09-07T05:32:12;9.57;;;6.00;;
78542;SDS011;67836;52.430;14.446;2023-09-07T05:34:56;9.48;;;5.80;;
78542;SDS011;67836;52.430;14.446;2023-09-07T05:37:40;8.50;;;5.40;;
78542;SDS011;67836;52.430;14.446;2023-09-07T05:40:23;9.95;;;5.57;;
78542;SDS011;67836;52.430;14.446;2023-09-07T05:43:08;11.70;;;6.20;;
78542;SDS011;67836;52.430;14.446;2023-09-07T05:45:51;11.43;;;6.32;;
78542;SDS011;67836;52.430;14.446;2023-09-07T05:48:36;12.35;;;7.85;;
78542;SDS011;67836;52.430;14.446;2023-09-07T05:51:19;12.68;;;7.60;;
78542;SDS011;67836;52.430;14.446;2023-09-07T05:54:03;10.60;;;7.75;;
78542;SDS011;67836;52.430;14.446;2023-09-07T05:56:47;12.85;;;7.68;;
78542;SDS011;67836;52.430;14.446;2023-09-07T05:59:31;11.13;;;7.60;;
78542;SDS011;67836;52.430;14.446;2023-09-07T06:02:15;12.70;;;7.85;;
78542;SDS011;67836;52.430;14.446;2023-09-07T06:04:58;11.88;;;7.80;;
78542;SDS011;67836;52.430;14.446;2023-09-07T06:07:43;14.80;;;7.68;;
78542;SDS011;67836;52.430;14.446;2023-09-07T06:10:29;9.80;;;6.65;;
78542;SDS011;67836;52.430;14.446;2023-09-07T06:13:13;35.70;;;10.57;;
78542;SDS011;67836;52.430;14.446;2023-09-07T06:15:57;15.63;;;8.20;;
78542;SDS011;67836;52.430;14.446;2023-09-07T06:18:44;18.30;;;8.80;;
78542;SDS011;67836;52.430;14.446;2023-09-07T06:21:27;13.48;;;7.40;;
78542;SDS011;67836;52.430;14.446;2023-09-07T06:24:11;11.65;;;7.55;;
78542;SDS011;67836;52.430;14.446;2023-09-07T06:26:54;10.77;;;7.18;;
78542;SDS011;67836;52.430;14.446;2023-09-07T06:29:39;10.82;;;7.07;;
78542;SDS011;67836;52.430;14.446;2023-09-07T06:32:22;10.00;;;6.53;;
78542;SDS011;67836;52.430;14.446;2023-09-07T06:35:06;12.57;;;7.15;;
78542;SDS011;67836;52.430;14.446;2023-09-07T06:37:50;9.82;;;6.93;;
78542;SDS011;67836;52.430;14.446;2023-09-07T06:40:35;10.25;;;7.43;;
78542;SDS011;67836;52.430;14.446;2023-09-07T06:43:18;9.43;;;6.88;;
78542;SDS011;67836;52.430;14.446;2023-09-07T06:46:05;10.18;;;6.88;;
78542;SDS011;67836;52.430;14.446;2023-09-07T06:48:49;12.35;;;7.40;;
78542;SDS011;67836;52.430;14.446;2023-09-07T06:51:33;10.88;;;7.68;;
78542;SDS011;67836;52.430;14.446;2023-09-07T06:54:17;10.18;;;7.65;;
78542;SDS011;67836;52.430;14.446;2023-09-07T06:57:01;10.80;;;7.35;;
78542;SDS011;67836;52.430;14.446;2023-09-07T06:59:45;10.63;;;7.10;;
78542;SDS011;67836;52.430;14.446;2023-09-07T07:02:30;10.55;;;6.68;;
78542;SDS011;67836;52.430;14.446;2023-09-07T07:05:14;10.45;;;6.60;;
78542;SDS011;67836;52.430;14.446;2023-09-07T07:07:58;11.00;;;7.30;;
78542;SDS011;67836;52.430;14.446;2023-09-07T07:10:43;11.07;;;7.32;;
78542;SDS011;67836;52.430;14.446;2023-09-07T07:13:27;11.60;;;7.10;;
78542;SDS011;67836;52.430;14.446;2023-09-07T07:16:11;10.23;;;6.78;;
78542;SDS011;67836;52.430;14.446;2023-09-07T07:18:55;9.77;;;6.55;;
78542;SDS011;67836;52.430;14.446;2023-09-07T07:21:39;8.70;;;6.18;;
78542;SDS011;67836;52.430;14.446;2023-09-07T07:24:23;10.27;;;6.72;;
78542;SDS011;67836;52.430;14.446;2023-09-07T07:27:07;9.13;;;6.68;;
78542;SDS011;67836;52.430;14.446;2023-09-07T07:29:51;9.38;;;7.10;;
78542;SDS011;67836;52.430;14.446;2023-09-07T07:32:35;9.70;;;7.22;;
78542;SDS011;67836;52.430;14.446;2023-09-07T07:35:19;9.38;;;6.40;;
78542;SDS011;67836;52.430;14.446;2023-09-07T07:38:03;10.05;;;6.32;;
78542;SDS011;67836;52.430;14.446;2023-09-07T07:40:47;9.40;;;6.07;;
78542;SDS011;67836;52.430;14.446;2023-09-07T07:43:32;10.40;;;7.10;;
78542;SDS011;67836;52.430;14.446;2023-09-07T07:46:16;10.18;;;6.47;;
78542;SDS011;67836;52.430;14.446;2023-09-07T07:48:59;8.88;;;5.72;;
78542;SDS011;67836;52.430;14.446;2023-09-07T07:51:44;9.60;;;6.75;;
78542;SDS011;67836;52.430;14.446;2023-09-07T07:54:28;9.52;;;6.90;;
78542;SDS011;67836;52.430;14.446;2023-09-07T07:57:12;9.13;;;6.35;;
78542;SDS011;67836;52.430;14.446;2023-09-07T07:59:56;9.18;;;6.13;;
78542;SDS011;67836;52.430;14.446;2023-09-07T08:02:40;9.52;;;5.95;;
78542;SDS011;67836;52.430;14.446;2023-09-07T08:05:24;8.85;;;5.60;;
78542;SDS011;67836;52.430;14.446;2023-09-07T08:08:07;8.55;;;5.65;;
78542;SDS011;67836;52.430;14.446;2023-09-07T08:10:51;8.98;;;5.53;;
78542;SDS011;67836;52.430;14.446;2023-09-07T08:13:35;8.68;;;5.10;;
78542;SDS011;67836;52.430;14.446;2023-09-07T08:16:19;9.32;;;5.60;;
78542;SDS011;67836;52.430;14.446;2023-09-07T08:19:03;7.85;;;4.82;;
78542;SDS011;67836;52.430;14.446;2023-09-07T08:21:47;8.15;;;4.90;;
78542;SDS011;67836;52.430;14.446;2023-09-07T08:24:32;7.32;;;4.78;;
78542;SDS011;67836;52.430;14.446;2023-09-07T08:27:16;8.43;;;5.68;;
78542;SDS011;67836;52.430;14.446;2023-09-07T08:30:02;8.85;;;5.20;;
78542;SDS011;67836;52.430;14.446;2023-09-07T08:32:47;8.77;;;5.20;;
78542;SDS011;67836;52.430;14.446;2023-09-07T08:35:31;7.97;;;4.50;;
78542;SDS011;67836;52.430;14.446;2023-09-07T08:38:18;7.75;;;4.82;;
78542;SDS011;67836;52.430;14.446;2023-09-07T08:41:05;8.98;;;5.35;;
78542;SDS011;67836;52.430;14.446;2023-09-07T08:43:50;8.40;;;5.00;;
78542;SDS011;67836;52.430;14.446;2023-09-07T08:46:37;8.27;;;4.75;;
78542;SDS011;67836;52.430;14.446;2023-09-07T08:49:20;7.25;;;4.47;;
78542;SDS011;67836;52.430;14.446;2023-09-07T08:52:06;8.02;;;4.05;;
78542;SDS011;67836;52.430;14.446;2023-09-07T08:54:51;10.07;;;4.90;;
78542;SDS011;67836;52.430;14.446;2023-09-07T08:57:35;7.45;;;4.80;;
78542;SDS011;67836;52.430;14.446;2023-09-07T09:00:19;7.38;;;4.40;;
78542;SDS011;67836;52.430;14.446;2023-09-07T09:03:03;7.60;;;4.20;;
78542;SDS011;67836;52.430;14.446;2023-09-07T09:05:47;7.00;;;3.80;;
78542;SDS011;67836;52.430;14.446;2023-09-07T09:08:46;7.80;;;4.50;;
78542;SDS011;67836;52.430;14.446;2023-09-07T09:11:33;7.07;;;4.47;;
78542;SDS011;67836;52.430;14.446;2023-09-07T09:14:18;7.13;;;4.10;;
78542;SDS011;67836;52.430;14.446;2023-09-07T09:17:02;7.45;;;4.22;;
78542;SDS011;67836;52.430;14.446;2023-09-07T09:19:46;7.30;;;4.35;;
78542;SDS011;67836;52.430;14.446;2023-09-07T09:22:30;7.55;;;4.25;;
78542;SDS011;67836;52.430;14.446;2023-09-07T09:25:13;7.22;;;4.22;;
78542;SDS011;67836;52.430;14.446;2023-09-07T09:27:57;7.28;;;4.28;;
78542;SDS011;67836;52.430;14.446;2023-09-07T09:30:41;8.55;;;4.25;;
78542;SDS011;67836;52.430;14.446;2023-09-07T09:33:31;6.30;;;3.45;;
78542;SDS011;67836;52.430;14.446;2023-09-07T09:36:16;7.53;;;4.40;;
78542;SDS011;67836;52.430;14.446;2023-09-07T09:39:01;7.22;;;4.60;;
78542;SDS011;67836;52.430;14.446;2023-09-07T09:41:44;7.97;;;3.40;;
78542;SDS011;67836;52.430;14.446;2023-09-07T09:44:28;8.43;;;3.25;;
78542;SDS011;67836;52.430;14.446;2023-09-07T09:47:13;6.15;;;3.10;;
78542;SDS011;67836;52.430;14.446;2023-09-07T09:49:57;6.80;;;3.65;;
78542;SDS011;67836;52.430;14.446;2023-09-07T09:52:41;6.70;;;3.63;;
78542;SDS011;67836;52.430;14.446;2023-09-07T09:55:26;5.75;;;3.25;;
78542;SDS011;67836;52.430;14.446;2023-09-07T09:58:10;6.10;;;3.40;;
78542;SDS011;67836;52.430;14.446;2023-09-07T10:00:55;6.82;;;3.20;;
78542;SDS011;67836;52.430;14.446;2023-09-07T10:03:42;5.78;;;2.88;;
78542;SDS011;67836;52.430;14.446;2023-09-07T10:06:29;6.32;;;3.33;;
78542;SDS011;67836;52.430;14.446;2023-09-07T10:09:13;7.20;;;3.13;;
78542;SDS011;67836;52.430;14.446;2023-09-07T10:12:01;6.05;;;3.28;;
78542;SDS011;67836;52.430;14.446;2023-09-07T10:14:46;7.63;;;3.40;;
78542;SDS011;67836;52.430;14.446;2023-09-07T10:17:34;8.30;;;4.00;;
78542;SDS011;67836;52.430;14.446;2023-09-07T10:20:19;6.38;;;3.60;;
78542;SDS011;67836;52.430;14.446;2023-09-07T10:23:04;6.10;;;2.83;;
78542;SDS011;67836;52.430;14.446;2023-09-07T10:25:49;4.47;;;2.08;;
78542;SDS011;67836;52.430;14.446;2023-09-07T10:28:33;5.78;;;3.15;;
78542;SDS011;67836;52.430;14.446;2023-09-07T10:31:17;4.78;;;2.67;;
78542;SDS011;67836;52.430;14.446;2023-09-07T10:34:10;7.10;;;3.67;;
78542;SDS011;67836;52.430;14.446;2023-09-07T10:36:56;6.78;;;3.35;;
78542;SDS011;67836;52.430;14.446;2023-09-07T10:39:40;4.80;;;2.58;;
78542;SDS011;67836;52.430;14.446;2023-09-07T10:42:26;6.05;;;3.30;;
78542;SDS011;67836;52.430;14.446;2023-09-07T10:45:11;6.38;;;3.28;;
78542;SDS011;67836;52.430;14.446;2023-09-07T10:47:56;7.07;;;3.83;;
78542;SDS011;67836;52.430;14.446;2023-09-07T10:50:44;6.53;;;3.50;;
78542;SDS011;67836;52.430;14.446;2023-09-07T10:53:29;6.15;;;3.35;;
78542;SDS011;67836;52.430;14.446;2023-09-07T10:56:13;5.95;;;3.50;;
78542;SDS011;67836;52.430;14.446;2023-09-07T10:58:57;5.93;;;3.53;;
78542;SDS011;67836;52.430;14.446;2023-09-07T11:01:41;5.45;;;3.13;;
78542;SDS011;67836;52.430;14.446;2023-09-07T11:04:25;6.10;;;3.17;;
78542;SDS011;67836;52.430;14.446;2023-09-07T11:07:09;8.60;;;3.45;;
78542;SDS011;67836;52.430;14.446;2023-09-07T11:09:53;5.85;;;3.00;;
78542;SDS011;67836;52.430;14.446;2023-09-07T11:12:38;5.80;;;3.00;;
78542;SDS011;67836;52.430;14.446;2023-09-07T11:15:22;5.00;;;2.53;;
78542;SDS011;67836;52.430;14.446;2023-09-07T11:18:06;4.15;;;2.42;;
78542;SDS011;67836;52.430;14.446;2023-09-07T11:20:51;7.13;;;4.25;;
78542;SDS011;67836;52.430;14.446;2023-09-07T11:23:35;5.82;;;3.15;;
78542;SDS011;67836;52.430;14.446;2023-09-07T11:26:21;4.75;;;2.65;;
78542;SDS011;67836;52.430;14.446;2023-09-07T11:29:07;8.60;;;3.58;;
78542;SDS011;67836;52.430;14.446;2023-09-07T11:31:50;5.93;;;3.10;;
78542;SDS011;67836;52.430;14.446;2023-09-07T11:34:35;6.53;;;2.60;;
78542;SDS011;67836;52.430;14.446;2023-09-07T11:37:22;5.63;;;2.97;;
78542;SDS011;67836;52.430;14.446;2023-09-07T11:40:07;6.05;;;3.47;;
78542;SDS011;67836;52.430;14.446;2023-09-07T11:42:56;6.22;;;2.90;;
78542;SDS011;67836;52.430;14.446;2023-09-07T11:45:40;6.20;;;3.28;;
78542;SDS011;67836;52.430;14.446;2023-09-07T11:48:24;7.50;;;2.60;;
78542;SDS011;67836;52.430;14.446;2023-09-07T11:51:08;7.85;;;3.70;;
78542;SDS011;67836;52.430;14.446;2023-09-07T11:53:52;6.70;;;3.50;;
78542;SDS011;67836;52.430;14.446;2023-09-07T11:56:36;6.60;;;3.40;;
78542;SDS011;67836;52.430;14.446;2023-09-07T11:59:23;5.28;;;2.97;;
78542;SDS011;67836;52.430;14.446;2023-09-07T12:02:07;5.78;;;2.92;;
78542;SDS011;67836;52.430;14.446;2023-09-07T12:04:54;6.07;;;2.97;;
78542;SDS011;67836;52.430;14.446;2023-09-07T12:07:38;6.22;;;3.50;;
78542;SDS011;67836;52.430;14.446;2023-09-07T12:10:22;6.43;;;3.70;;
78542;SDS011;67836;52.430;14.446;2023-09-07T12:13:06;6.68;;;3.35;;
78542;SDS011;67836;52.430;14.446;2023-09-07T12:15:49;5.88;;;3.30;;
78542;SDS011;67836;52.430;14.446;2023-09-07T12:18:33;6.13;;;3.05;;
78542;SDS011;67836;52.430;14.446;2023-09-07T12:21:17;7.57;;;3.53;;
78542;SDS011;67836;52.430;14.446;2023-09-07T12:24:01;6.40;;;3.17;;
78542;SDS011;67836;52.430;14.446;2023-09-07T12:26:45;5.95;;;3.30;;
78542;SDS011;67836;52.430;14.446;2023-09-07T12:29:29;5.82;;;2.90;;
78542;SDS011;67836;52.430;14.446;2023-09-07T12:32:13;7.22;;;3.28;;
78542;SDS011;67836;52.430;14.446;2023-09-07T12:34:57;6.00;;;3.45;;
78542;SDS011;67836;52.430;14.446;2023-09-07T12:37:41;7.18;;;3.60;;
78542;SDS011;67836;52.430;14.446;2023-09-07T12:40:25;6.05;;;2.83;;
78542;SDS011;67836;52.430;14.446;2023-09-07T12:43:09;5.40;;;3.08;;
78542;SDS011;67836;52.430;14.446;2023-09-07T12:45:52;7.68;;;3.45;;
78542;SDS011;67836;52.430;14.446;2023-09-07T12:48:36;6.13;;;3.53;;
78542;SDS011;67836;52.430;14.446;2023-09-07T12:51:20;9.27;;;3.90;;
78542;SDS011;67836;52.430;14.446;2023-09-07T12:54:04;6.10;;;3.30;;
78542;SDS011;67836;52.430;14.446;2023-09-07T12:56:47;5.85;;;3.35;;
78542;SDS011;67836;52.430;14.446;2023-09-07T12:59:31;5.55;;;2.65;;
78542;SDS011;67836;52.430;14.446;2023-09-07T13:02:15;6.80;;;3.70;;
78542;SDS011;67836;52.430;14.446;2023-09-07T13:04:59;7.65;;;3.50;;
78542;SDS011;67836;52.430;14.446;2023-09-07T13:07:43;6.57;;;3.05;;
78542;SDS011;67836;52.430;14.446;2023-09-07T13:10:28;6.97;;;3.30;;
78542;SDS011;67836;52.430;14.446;2023-09-07T13:13:11;6.97;;;3.67;;
78542;SDS011;67836;52.430;14.446;2023-09-07T13:15:55;8.50;;;3.65;;
78542;SDS011;67836;52.430;14.446;2023-09-07T13:18:39;5.03;;;2.70;;
78542;SDS011;67836;52.430;14.446;2023-09-07T13:21:23;5.70;;;2.75;;
78542;SDS011;67836;52.430;14.446;2023-09-07T13:24:07;6.63;;;3.85;;
78542;SDS011;67836;52.430;14.446;2023-09-07T13:26:52;7.18;;;3.45;;
78542;SDS011;67836;52.430;14.446;2023-09-07T13:29:35;7.28;;;3.42;;
78542;SDS011;67836;52.430;14.446;2023-09-07T13:32:19;6.97;;;3.70;;
78542;SDS011;67836;52.430;14.446;2023-09-07T13:35:03;6.45;;;3.35;;
78542;SDS011;67836;52.430;14.446;2023-09-07T13:37:48;6.22;;;3.38;;
78542;SDS011;67836;52.430;14.446;2023-09-07T13:40:32;5.80;;;3.10;;
78542;SDS011;67836;52.430;14.446;2023-09-07T13:43:16;6.18;;;3.40;;
78542;SDS011;67836;52.430;14.446;2023-09-07T13:45:59;6.85;;;3.72;;
78542;SDS011;67836;52.430;14.446;2023-09-07T13:48:43;7.90;;;3.80;;
78542;SDS011;67836;52.430;14.446;2023-09-07T13:51:27;7.20;;;3.55;;
78542;SDS011;67836;52.430;14.446;2023-09-07T13:54:10;6.70;;;3.00;;
78542;SDS011;67836;52.430;14.446;2023-09-07T13:56:54;7.65;;;3.80;;
78542;SDS011;67836;52.430;14.446;2023-09-07T13:59:38;6.38;;;3.53;;
78542;SDS011;67836;52.430;14.446;2023-09-07T14:02:22;6.45;;;3.42;;
78542;SDS011;67836;52.430;14.446;2023-09-07T14:05:07;6.45;;;3.40;;
78542;SDS011;67836;52.430;14.446;2023-09-07T14:07:51;8.27;;;4.13;;
78542;SDS011;67836;52.430;14.446;2023-09-07T14:10:35;7.35;;;3.35;;
78542;SDS011;67836;52.430;14.446;2023-09-07T14:13:19;6.82;;;4.03;;
78542;SDS011;67836;52.430;14.446;2023-09-07T14:16:03;6.78;;;3.35;;
78542;SDS011;67836;52.430;14.446;2023-09-07T14:18:47;7.40;;;3.88;;
78542;SDS011;67836;52.430;14.446;2023-09-07T14:21:31;6.28;;;3.83;;
78542;SDS011;67836;52.430;14.446;2023-09-07T14:24:15;8.90;;;3.78;;
78542;SDS011;67836;52.430;14.446;2023-09-07T14:26:59;6.65;;;4.10;;
78542;SDS011;67836;52.430;14.446;2023-09-07T14:29:42;6.95;;;3.88;;
78542;SDS011;67836;52.430;14.446;2023-09-07T14:32:27;7.00;;;3.83;;
78542;SDS011;67836;52.430;14.446;2023-09-07T14:35:11;7.38;;;3.65;;
78542;SDS011;67836;52.430;14.446;2023-09-07T14:37:54;7.95;;;4.10;;
78542;SDS011;67836;52.430;14.446;2023-09-07T14:40:38;7.85;;;4.45;;
78542;SDS011;67836;52.430;14.446;2023-09-07T14:43:22;7.60;;;4.22;;
78542;SDS011;67836;52.430;14.446;2023-09-07T14:46:06;8.55;;;3.90;;
78542;SDS011;67836;52.430;14.446;2023-09-07T14:48:50;6.65;;;3.70;;
78542;SDS011;67836;52.430;14.446;2023-09-07T14:51:36;7.68;;;4.35;;
78542;SDS011;67836;52.430;14.446;2023-09-07T14:54:21;7.55;;;4.35;;
78542;SDS011;67836;52.430;14.446;2023-09-07T14:57:04;6.07;;;3.03;;
78542;SDS011;67836;52.430;14.446;2023-09-07T14:59:48;6.57;;;3.70;;
78542;SDS011;67836;52.430;14.446;2023-09-07T15:02:32;8.60;;;3.97;;
78542;SDS011;67836;52.430;14.446;2023-09-07T15:05:17;7.47;;;4.60;;
78542;SDS011;67836;52.430;14.446;2023-09-07T15:08:00;7.97;;;4.78;;
78542;SDS011;67836;52.430;14.446;2023-09-07T15:10:46;6.00;;;3.30;;
78542;SDS011;67836;52.430;14.446;2023-09-07T15:13:30;7.65;;;3.63;;
78542;SDS011;67836;52.430;14.446;2023-09-07T15:16:13;7.10;;;4.05;;
78542;SDS011;67836;52.430;14.446;2023-09-07T15:18:57;7.57;;;4.70;;
78542;SDS011;67836;52.430;14.446;2023-09-07T15:21:41;7.03;;;3.35;;
78542;SDS011;67836;52.430;14.446;2023-09-07T15:24:25;7.15;;;4.18;;
78542;SDS011;67836;52.430;14.446;2023-09-07T15:27:10;6.95;;;4.03;;
78542;SDS011;67836;52.430;14.446;2023-09-07T15:29:53;7.75;;;4.50;;
78542;SDS011;67836;52.430;14.446;2023-09-07T15:32:38;9.02;;;4.53;;
78542;SDS011;67836;52.430;14.446;2023-09-07T15:35:22;7.63;;;4.65;;
78542;SDS011;67836;52.430;14.446;2023-09-07T15:38:06;7.72;;;4.05;;
78542;SDS011;67836;52.430;14.446;2023-09-07T15:40:50;7.80;;;4.68;;
78542;SDS011;67836;52.430;14.446;2023-09-07T15:43:34;6.65;;;3.33;;
78542;SDS011;67836;52.430;14.446;2023-09-07T15:46:18;8.82;;;4.95;;
78542;SDS011;67836;52.430;14.446;2023-09-07T15:49:03;6.80;;;3.42;;
78542;SDS011;67836;52.430;14.446;2023-09-07T15:51:47;7.68;;;3.78;;
78542;SDS011;67836;52.430;14.446;2023-09-07T15:54:31;8.57;;;4.50;;
78542;SDS011;67836;52.430;14.446;2023-09-07T15:57:15;8.18;;;4.90;;
78542;SDS011;67836;52.430;14.446;2023-09-07T15:59:59;7.15;;;4.28;;
78542;SDS011;67836;52.430;14.446;2023-09-07T16:02:44;8.10;;;4.40;;
78542;SDS011;67836;52.430;14.446;2023-09-07T16:05:28;8.73;;;4.63;;
78542;SDS011;67836;52.430;14.446;2023-09-07T16:08:12;7.22;;;4.22;;
78542;SDS011;67836;52.430;14.446;2023-09-07T16:10:57;8.30;;;4.40;;
78542;SDS011;67836;52.430;14.446;2023-09-07T16:13:41;8.90;;;4.68;;
78542;SDS011;67836;52.430;14.446;2023-09-07T16:16:25;7.43;;;4.13;;
78542;SDS011;67836;52.430;14.446;2023-09-07T16:19:09;8.98;;;5.13;;
78542;SDS011;67836;52.430;14.446;2023-09-07T16:21:53;8.20;;;4.20;;
78542;SDS011;67836;52.430;14.446;2023-09-07T16:24:37;8.20;;;4.55;;
78542;SDS011;67836;52.430;14.446;2023-09-07T16:27:20;10.70;;;4.38;;
78542;SDS011;67836;52.430;14.446;2023-09-07T16:30:05;8.32;;;4.95;;
78542;SDS011;67836;52.430;14.446;2023-09-07T16:32:49;11.50;;;4.95;;
78542;SDS011;67836;52.430;14.446;2023-09-07T16:35:33;9.05;;;5.00;;
78542;SDS011;67836;52.430;14.446;2023-09-07T16:38:18;9.18;;;5.00;;
78542;SDS011;67836;52.430;14.446;2023-09-07T16:41:05;7.80;;;4.38;;
78542;SDS011;67836;52.430;14.446;2023-09-07T16:43:49;7.82;;;4.32;;
78542;SDS011;67836;52.430;14.446;2023-09-07T16:46:32;7.72;;;4.70;;
78542;SDS011;67836;52.430;14.446;2023-09-07T16:49:16;10.40;;;4.95;;
78542;SDS011;67836;52.430;14.446;2023-09-07T16:52:00;8.50;;;5.05;;
78542;SDS011;67836;52.430;14.446;2023-09-07T16:54:44;7.57;;;3.83;;